sensor_id;sensor_type;location;lat;lon;timestamp;P1;durP1;ratioP1;P2;durP2;ratioP2
18196;SDS011;9224;52.422;13.024;2022-07-06T00:02:18;3.30;;;1.27;;
18196;SDS011;9224;52.422;13.024;2022-07-06T00:04:45;2.27;;;1.53;;
18196;SDS011;9224;52.422;13.024;2022-07-06T00:07:11;2.03;;;1.43;;
18196;SDS011;9224;52.422;13.024;2022-07-06T00:09:39;2.20;;;1.53;;
18196;SDS011;9224;52.422;13.024;2022-07-06T00:12:05;2.63;;;1.70;;
18196;SDS011;9224;52.422;13.024;2022-07-06T00:14:34;2.67;;;1.50;;
18196;SDS011;9224;52.422;13.024;2022-07-06T00:17:00;1.43;;;1.33;;
18196;SDS011;9224;52.422;13.024;2022-07-06T00:19:27;3.80;;;1.37;;
18196;SDS011;9224;52.422;13.024;2022-07-06T00:21:53;1.73;;;1.23;;
18196;SDS011;9224;52.422;13.024;2022-07-06T00:24:20;2.10;;;1.80;;
18196;SDS011;9224;52.422;13.024;2022-07-06T00:26:46;1.93;;;1.10;;
18196;SDS011;9224;52.422;13.024;2022-07-06T00:29:13;4.20;;;2.00;;
18196;SDS011;9224;52.422;13.024;2022-07-06T00:31:41;1.90;;;1.67;;
18196;SDS011;9224;52.422;13.024;2022-07-06T00:34:07;1.43;;;1.33;;
18196;SDS011;9224;52.422;13.024;2022-07-06T00:36:34;2.43;;;1.83;;
18196;SDS011;9224;52.422;13.024;2022-07-06T00:39:00;4.83;;;1.50;;
18196;SDS011;9224;52.422;13.024;2022-07-06T00:41:27;1.20;;;1.20;;
18196;SDS011;9224;52.422;13.024;2022-07-06T00:43:53;1.40;;;1.30;;
18196;SDS011;9224;52.422;13.024;2022-07-06T00:46:22;1.57;;;1.47;;
18196;SDS011;9224;52.422;13.024;2022-07-06T00:48:52;2.93;;;1.93;;
18196;SDS011;9224;52.422;13.024;2022-07-06T00:51:18;3.60;;;1.50;;
18196;SDS011;9224;52.422;13.024;2022-07-06T00:53:46;2.87;;;1.77;;
18196;SDS011;9224;52.422;13.024;2022-07-06T00:56:12;2.47;;;1.67;;
18196;SDS011;9224;52.422;13.024;2022-07-06T00:58:39;2.70;;;1.30;;
18196;SDS011;9224;52.422;13.024;2022-07-06T01:01:05;1.77;;;1.63;;
18196;SDS011;9224;52.422;13.024;2022-07-06T01:03:32;2.90;;;1.70;;
18196;SDS011;9224;52.422;13.024;2022-07-06T01:05:59;4.37;;;1.60;;
18196;SDS011;9224;52.422;13.024;2022-07-06T01:08:26;1.63;;;1.40;;
18196;SDS011;9224;52.422;13.024;2022-07-06T01:10:54;2.13;;;1.53;;
18196;SDS011;9224;52.422;13.024;2022-07-06T01:13:20;3.23;;;2.00;;
18196;SDS011;9224;52.422;13.024;2022-07-06T01:15:47;3.37;;;1.73;;
18196;SDS011;9224;52.422;13.024;2022-07-06T01:18:13;4.07;;;2.07;;
18196;SDS011;9224;52.422;13.024;2022-07-06T01:20:41;2.40;;;1.40;;
18196;SDS011;9224;52.422;13.024;2022-07-06T01:23:07;1.80;;;1.70;;
18196;SDS011;9224;52.422;13.024;2022-07-06T01:25:34;1.67;;;1.57;;
18196;SDS011;9224;52.422;13.024;2022-07-06T01:28:01;1.87;;;1.70;;
18196;SDS011;9224;52.422;13.024;2022-07-06T01:30:27;4.13;;;2.30;;
18196;SDS011;9224;52.422;13.024;2022-07-06T01:32:54;2.77;;;1.63;;
18196;SDS011;9224;52.422;13.024;2022-07-06T01:35:20;2.10;;;1.73;;
18196;SDS011;9224;52.422;13.024;2022-07-06T01:37:49;1.60;;;1.50;;
18196;SDS011;9224;52.422;13.024;2022-07-06T01:40:16;3.50;;;1.93;;
18196;SDS011;9224;52.422;13.024;2022-07-06T01:42:42;2.27;;;2.07;;
18196;SDS011;9224;52.422;13.024;2022-07-06T01:45:09;2.00;;;1.80;;
18196;SDS011;9224;52.422;13.024;2022-07-06T01:47:36;3.93;;;2.07;;
18196;SDS011;9224;52.422;13.024;2022-07-06T01:50:04;1.63;;;1.53;;
18196;SDS011;9224;52.422;13.024;2022-07-06T01:52:32;2.43;;;2.00;;
18196;SDS011;9224;52.422;13.024;2022-07-06T01:55:00;4.00;;;1.80;;
18196;SDS011;9224;52.422;13.024;2022-07-06T01:57:26;3.10;;;1.70;;
18196;SDS011;9224;52.422;13.024;2022-07-06T01:59:53;2.77;;;1.60;;
18196;SDS011;9224;52.422;13.024;2022-07-06T02:02:19;5.77;;;1.80;;
18196;SDS011;9224;52.422;13.024;2022-07-06T02:04:46;2.03;;;1.73;;
18196;SDS011;9224;52.422;13.024;2022-07-06T02:07:12;2.07;;;1.93;;
18196;SDS011;9224;52.422;13.024;2022-07-06T02:09:39;2.17;;;2.00;;
18196;SDS011;9224;52.422;13.024;2022-07-06T02:12:07;5.80;;;2.10;;
18196;SDS011;9224;52.422;13.024;2022-07-06T02:14:33;2.50;;;2.00;;
18196;SDS011;9224;52.422;13.024;2022-07-06T02:17:00;2.37;;;2.03;;
18196;SDS011;9224;52.422;13.024;2022-07-06T02:19:26;4.20;;;2.20;;
18196;SDS011;9224;52.422;13.024;2022-07-06T02:21:53;2.50;;;2.30;;
18196;SDS011;9224;52.422;13.024;2022-07-06T02:24:19;4.07;;;2.50;;
18196;SDS011;9224;52.422;13.024;2022-07-06T02:26:46;2.17;;;1.97;;
18196;SDS011;9224;52.422;13.024;2022-07-06T02:29:14;1.87;;;1.77;;
18196;SDS011;9224;52.422;13.024;2022-07-06T02:31:40;3.00;;;2.40;;
18196;SDS011;9224;52.422;13.024;2022-07-06T02:34:25;2.30;;;2.10;;
18196;SDS011;9224;52.422;13.024;2022-07-06T02:37:10;3.83;;;2.30;;
18196;SDS011;9224;52.422;13.024;2022-07-06T02:39:56;5.17;;;2.27;;
18196;SDS011;9224;52.422;13.024;2022-07-06T02:42:41;3.10;;;1.90;;
18196;SDS011;9224;52.422;13.024;2022-07-06T02:45:27;2.40;;;2.20;;
18196;SDS011;9224;52.422;13.024;2022-07-06T02:48:13;2.77;;;2.30;;
18196;SDS011;9224;52.422;13.024;2022-07-06T02:50:58;4.00;;;2.07;;
18196;SDS011;9224;52.422;13.024;2022-07-06T02:53:43;5.00;;;2.20;;
18196;SDS011;9224;52.422;13.024;2022-07-06T02:56:28;2.63;;;1.90;;
18196;SDS011;9224;52.422;13.024;2022-07-06T02:59:13;5.07;;;2.50;;
18196;SDS011;9224;52.422;13.024;2022-07-06T03:02:00;4.17;;;2.07;;
18196;SDS011;9224;52.422;13.024;2022-07-06T03:04:45;4.63;;;2.70;;
18196;SDS011;9224;52.422;13.024;2022-07-06T03:07:11;6.00;;;2.37;;
18196;SDS011;9224;52.422;13.024;2022-07-06T03:09:38;3.77;;;1.97;;
18196;SDS011;9224;52.422;13.024;2022-07-06T03:12:04;2.33;;;2.13;;
18196;SDS011;9224;52.422;13.024;2022-07-06T03:14:31;3.00;;;2.70;;
18196;SDS011;9224;52.422;13.024;2022-07-06T03:16:59;5.70;;;2.33;;
18196;SDS011;9224;52.422;13.024;2022-07-06T03:19:26;2.63;;;2.27;;
18196;SDS011;9224;52.422;13.024;2022-07-06T03:21:52;2.97;;;2.53;;
18196;SDS011;9224;52.422;13.024;2022-07-06T03:24:19;3.20;;;2.23;;
18196;SDS011;9224;52.422;13.024;2022-07-06T03:26:45;2.93;;;2.10;;
18196;SDS011;9224;52.422;13.024;2022-07-06T03:29:12;2.97;;;2.60;;
18196;SDS011;9224;52.422;13.024;2022-07-06T03:31:38;2.70;;;2.10;;
18196;SDS011;9224;52.422;13.024;2022-07-06T03:34:06;4.27;;;2.30;;
18196;SDS011;9224;52.422;13.024;2022-07-06T03:36:32;3.43;;;2.10;;
18196;SDS011;9224;52.422;13.024;2022-07-06T03:38:59;2.97;;;2.20;;
18196;SDS011;9224;52.422;13.024;2022-07-06T03:41:25;2.40;;;2.13;;
18196;SDS011;9224;52.422;13.024;2022-07-06T03:43:52;2.97;;;2.40;;
18196;SDS011;9224;52.422;13.024;2022-07-06T03:46:18;7.80;;;2.47;;
18196;SDS011;9224;52.422;13.024;2022-07-06T03:48:45;5.03;;;1.90;;
18196;SDS011;9224;52.422;13.024;2022-07-06T03:51:13;3.57;;;2.20;;
18196;SDS011;9224;52.422;13.024;2022-07-06T03:53:39;3.47;;;2.00;;
18196;SDS011;9224;52.422;13.024;2022-07-06T03:56:06;2.40;;;2.03;;
18196;SDS011;9224;52.422;13.024;2022-07-06T03:58:59;3.47;;;2.10;;
18196;SDS011;9224;52.422;13.024;2022-07-06T04:01:27;3.57;;;2.17;;
18196;SDS011;9224;52.422;13.024;2022-07-06T04:03:55;3.80;;;2.57;;
18196;SDS011;9224;52.422;13.024;2022-07-06T04:06:23;2.50;;;2.07;;
18196;SDS011;9224;52.422;13.024;2022-07-06T04:08:49;5.00;;;1.73;;
18196;SDS011;9224;52.422;13.024;2022-07-06T04:11:16;6.63;;;2.53;;
18196;SDS011;9224;52.422;13.024;2022-07-06T04:13:42;5.40;;;2.33;;
18196;SDS011;9224;52.422;13.024;2022-07-06T04:16:08;6.27;;;2.07;;
18196;SDS011;9224;52.422;13.024;2022-07-06T04:18:35;3.60;;;1.70;;
18196;SDS011;9224;52.422;13.024;2022-07-06T04:21:02;3.63;;;1.87;;
18196;SDS011;9224;52.422;13.024;2022-07-06T04:23:30;4.73;;;1.60;;
18196;SDS011;9224;52.422;13.024;2022-07-06T04:25:56;2.23;;;1.93;;
18196;SDS011;9224;52.422;13.024;2022-07-06T04:28:23;3.93;;;1.97;;
18196;SDS011;9224;52.422;13.024;2022-07-06T04:30:49;4.63;;;2.00;;
18196;SDS011;9224;52.422;13.024;2022-07-06T04:33:16;5.77;;;2.03;;
18196;SDS011;9224;52.422;13.024;2022-07-06T04:35:42;2.93;;;2.40;;
18196;SDS011;9224;52.422;13.024;2022-07-06T04:38:09;6.57;;;2.17;;
18196;SDS011;9224;52.422;13.024;2022-07-06T04:40:37;4.47;;;2.13;;
18196;SDS011;9224;52.422;13.024;2022-07-06T04:43:04;4.07;;;2.17;;
18196;SDS011;9224;52.422;13.024;2022-07-06T04:45:30;3.33;;;2.17;;
18196;SDS011;9224;52.422;13.024;2022-07-06T04:47:57;3.77;;;2.30;;
18196;SDS011;9224;52.422;13.024;2022-07-06T04:50:24;5.20;;;2.97;;
18196;SDS011;9224;52.422;13.024;2022-07-06T04:52:50;5.37;;;2.10;;
18196;SDS011;9224;52.422;13.024;2022-07-06T04:55:17;3.10;;;1.90;;
18196;SDS011;9224;52.422;13.024;2022-07-06T04:57:45;3.07;;;2.00;;
18196;SDS011;9224;52.422;13.024;2022-07-06T05:00:12;5.83;;;2.40;;
18196;SDS011;9224;52.422;13.024;2022-07-06T05:02:39;3.63;;;2.20;;
18196;SDS011;9224;52.422;13.024;2022-07-06T05:05:05;4.40;;;1.70;;
18196;SDS011;9224;52.422;13.024;2022-07-06T05:07:34;3.13;;;1.97;;
18196;SDS011;9224;52.422;13.024;2022-07-06T05:10:04;2.80;;;1.70;;
18196;SDS011;9224;52.422;13.024;2022-07-06T05:12:32;4.03;;;2.00;;
18196;SDS011;9224;52.422;13.024;2022-07-06T05:14:59;4.73;;;1.80;;
18196;SDS011;9224;52.422;13.024;2022-07-06T05:17:26;3.30;;;1.60;;
18196;SDS011;9224;52.422;13.024;2022-07-06T05:19:52;3.27;;;1.80;;
18196;SDS011;9224;52.422;13.024;2022-07-06T05:22:19;1.87;;;1.60;;
18196;SDS011;9224;52.422;13.024;2022-07-06T05:24:45;4.33;;;2.10;;
18196;SDS011;9224;52.422;13.024;2022-07-06T05:27:12;3.87;;;2.40;;
18196;SDS011;9224;52.422;13.024;2022-07-06T05:29:38;5.27;;;1.87;;
18196;SDS011;9224;52.422;13.024;2022-07-06T05:32:07;7.60;;;2.13;;
18196;SDS011;9224;52.422;13.024;2022-07-06T05:34:33;4.17;;;2.00;;
18196;SDS011;9224;52.422;13.024;2022-07-06T05:37:01;3.67;;;2.00;;
18196;SDS011;9224;52.422;13.024;2022-07-06T05:39:28;3.93;;;2.03;;
18196;SDS011;9224;52.422;13.024;2022-07-06T05:41:54;5.77;;;1.73;;
18196;SDS011;9224;52.422;13.024;2022-07-06T05:44:21;4.83;;;2.43;;
18196;SDS011;9224;52.422;13.024;2022-07-06T05:46:47;3.77;;;1.83;;
18196;SDS011;9224;52.422;13.024;2022-07-06T05:49:15;3.80;;;2.00;;
18196;SDS011;9224;52.422;13.024;2022-07-06T05:51:59;4.67;;;2.20;;
18196;SDS011;9224;52.422;13.024;2022-07-06T05:54:26;7.43;;;2.03;;
18196;SDS011;9224;52.422;13.024;2022-07-06T05:56:52;8.03;;;2.60;;
18196;SDS011;9224;52.422;13.024;2022-07-06T05:59:19;5.40;;;2.27;;
18196;SDS011;9224;52.422;13.024;2022-07-06T06:01:45;5.60;;;2.20;;
18196;SDS011;9224;52.422;13.024;2022-07-06T06:04:12;3.90;;;1.80;;
18196;SDS011;9224;52.422;13.024;2022-07-06T06:06:39;5.40;;;2.70;;
18196;SDS011;9224;52.422;13.024;2022-07-06T06:09:06;3.40;;;1.57;;
18196;SDS011;9224;52.422;13.024;2022-07-06T06:11:32;3.30;;;2.10;;
18196;SDS011;9224;52.422;13.024;2022-07-06T06:13:59;6.70;;;2.37;;
18196;SDS011;9224;52.422;13.024;2022-07-06T06:16:25;5.20;;;2.27;;
18196;SDS011;9224;52.422;13.024;2022-07-06T06:18:52;4.37;;;1.77;;
18196;SDS011;9224;52.422;13.024;2022-07-06T06:21:18;6.03;;;2.10;;
18196;SDS011;9224;52.422;13.024;2022-07-06T06:23:46;4.37;;;1.80;;
18196;SDS011;9224;52.422;13.024;2022-07-06T06:26:12;3.67;;;1.53;;
18196;SDS011;9224;52.422;13.024;2022-07-06T06:28:39;2.97;;;1.70;;
18196;SDS011;9224;52.422;13.024;2022-07-06T06:31:06;2.10;;;1.80;;
18196;SDS011;9224;52.422;13.024;2022-07-06T06:33:33;2.67;;;2.07;;
18196;SDS011;9224;52.422;13.024;2022-07-06T06:35:59;3.27;;;1.80;;
18196;SDS011;9224;52.422;13.024;2022-07-06T06:38:26;4.97;;;1.60;;
18196;SDS011;9224;52.422;13.024;2022-07-06T06:40:55;4.57;;;1.70;;
18196;SDS011;9224;52.422;13.024;2022-07-06T06:43:22;4.87;;;2.77;;
18196;SDS011;9224;52.422;13.024;2022-07-06T06:45:49;5.60;;;1.93;;
18196;SDS011;9224;52.422;13.024;2022-07-06T06:48:15;2.47;;;1.50;;
18196;SDS011;9224;52.422;13.024;2022-07-06T06:50:42;4.60;;;2.00;;
18196;SDS011;9224;52.422;13.024;2022-07-06T06:53:09;3.33;;;2.00;;
18196;SDS011;9224;52.422;13.024;2022-07-06T06:55:35;5.43;;;2.00;;
18196;SDS011;9224;52.422;13.024;2022-07-06T06:58:03;3.77;;;1.90;;
18196;SDS011;9224;52.422;13.024;2022-07-06T07:00:29;4.60;;;2.00;;
18196;SDS011;9224;52.422;13.024;2022-07-06T07:02:56;3.10;;;1.53;;
18196;SDS011;9224;52.422;13.024;2022-07-06T07:05:23;3.13;;;1.43;;
18196;SDS011;9224;52.422;13.024;2022-07-06T07:07:50;3.73;;;1.80;;
18196;SDS011;9224;52.422;13.024;2022-07-06T07:10:16;4.60;;;2.37;;
18196;SDS011;9224;52.422;13.024;2022-07-06T07:12:43;7.73;;;2.20;;
18196;SDS011;9224;52.422;13.024;2022-07-06T07:15:11;3.57;;;1.70;;
18196;SDS011;9224;52.422;13.024;2022-07-06T07:17:39;5.73;;;2.17;;
18196;SDS011;9224;52.422;13.024;2022-07-06T07:20:06;3.73;;;1.70;;
18196;SDS011;9224;52.422;13.024;2022-07-06T07:22:33;2.00;;;1.43;;
18196;SDS011;9224;52.422;13.024;2022-07-06T07:24:59;2.97;;;1.53;;
18196;SDS011;9224;52.422;13.024;2022-07-06T07:27:26;5.93;;;1.70;;
18196;SDS011;9224;52.422;13.024;2022-07-06T07:29:53;5.17;;;1.67;;
18196;SDS011;9224;52.422;13.024;2022-07-06T07:32:21;3.63;;;1.23;;
18196;SDS011;9224;52.422;13.024;2022-07-06T07:34:47;4.77;;;1.30;;
18196;SDS011;9224;52.422;13.024;2022-07-06T07:37:14;6.70;;;1.43;;
18196;SDS011;9224;52.422;13.024;2022-07-06T07:39:40;5.07;;;2.10;;
18196;SDS011;9224;52.422;13.024;2022-07-06T07:42:07;2.87;;;1.13;;
18196;SDS011;9224;52.422;13.024;2022-07-06T07:44:34;2.80;;;1.47;;
18196;SDS011;9224;52.422;13.024;2022-07-06T07:47:00;2.17;;;1.10;;
18196;SDS011;9224;52.422;13.024;2022-07-06T07:49:28;3.47;;;1.00;;
18196;SDS011;9224;52.422;13.024;2022-07-06T07:51:54;2.77;;;1.33;;
18196;SDS011;9224;52.422;13.024;2022-07-06T07:54:22;6.80;;;1.47;;
18196;SDS011;9224;52.422;13.024;2022-07-06T07:56:48;2.40;;;1.70;;
18196;SDS011;9224;52.422;13.024;2022-07-06T07:59:15;6.30;;;1.27;;
18196;SDS011;9224;52.422;13.024;2022-07-06T08:01:41;2.63;;;1.37;;
18196;SDS011;9224;52.422;13.024;2022-07-06T08:04:08;1.37;;;1.03;;
18196;SDS011;9224;52.422;13.024;2022-07-06T08:06:36;4.30;;;1.23;;
18196;SDS011;9224;52.422;13.024;2022-07-06T08:09:02;1.83;;;1.40;;
18196;SDS011;9224;52.422;13.024;2022-07-06T08:11:30;5.67;;;1.90;;
18196;SDS011;9224;52.422;13.024;2022-07-06T08:13:56;3.33;;;1.87;;
18196;SDS011;9224;52.422;13.024;2022-07-06T08:16:23;4.47;;;1.50;;
18196;SDS011;9224;52.422;13.024;2022-07-06T08:18:49;3.93;;;1.10;;
18196;SDS011;9224;52.422;13.024;2022-07-06T08:21:16;5.97;;;1.70;;
18196;SDS011;9224;52.422;13.024;2022-07-06T08:23:44;6.00;;;1.53;;
18196;SDS011;9224;52.422;13.024;2022-07-06T08:26:10;1.63;;;1.10;;
18196;SDS011;9224;52.422;13.024;2022-07-06T08:28:37;3.03;;;1.90;;
18196;SDS011;9224;52.422;13.024;2022-07-06T08:31:03;3.27;;;1.10;;
18196;SDS011;9224;52.422;13.024;2022-07-06T08:33:30;4.20;;;1.40;;
18196;SDS011;9224;52.422;13.024;2022-07-06T08:35:56;5.47;;;1.53;;
18196;SDS011;9224;52.422;13.024;2022-07-06T08:38:23;3.20;;;1.30;;
18196;SDS011;9224;52.422;13.024;2022-07-06T08:40:50;3.03;;;1.10;;
18196;SDS011;9224;52.422;13.024;2022-07-06T08:43:17;3.57;;;1.33;;
18196;SDS011;9224;52.422;13.024;2022-07-06T08:45:44;3.37;;;1.20;;
18196;SDS011;9224;52.422;13.024;2022-07-06T08:48:11;3.77;;;1.30;;
18196;SDS011;9224;52.422;13.024;2022-07-06T08:50:38;2.37;;;1.20;;
18196;SDS011;9224;52.422;13.024;2022-07-06T08:53:05;3.60;;;1.43;;
18196;SDS011;9224;52.422;13.024;2022-07-06T08:55:31;3.37;;;1.47;;
18196;SDS011;9224;52.422;13.024;2022-07-06T08:58:00;4.17;;;1.53;;
18196;SDS011;9224;52.422;13.024;2022-07-06T09:00:29;2.70;;;1.53;;
18196;SDS011;9224;52.422;13.024;2022-07-06T09:02:58;5.83;;;1.73;;
18196;SDS011;9224;52.422;13.024;2022-07-06T09:05:24;2.27;;;1.30;;
18196;SDS011;9224;52.422;13.024;2022-07-06T09:07:51;1.30;;;1.00;;
18196;SDS011;9224;52.422;13.024;2022-07-06T09:10:19;6.07;;;1.53;;
18196;SDS011;9224;52.422;13.024;2022-07-06T09:12:47;2.33;;;1.10;;
18196;SDS011;9224;52.422;13.024;2022-07-06T09:15:15;1.97;;;0.93;;
18196;SDS011;9224;52.422;13.024;2022-07-06T09:17:42;3.97;;;1.37;;
18196;SDS011;9224;52.422;13.024;2022-07-06T09:20:10;3.50;;;1.47;;
18196;SDS011;9224;52.422;13.024;2022-07-06T09:22:38;3.43;;;1.20;;
18196;SDS011;9224;52.422;13.024;2022-07-06T09:25:05;2.73;;;0.83;;
18196;SDS011;9224;52.422;13.024;2022-07-06T09:27:36;2.77;;;1.00;;
18196;SDS011;9224;52.422;13.024;2022-07-06T09:30:03;4.43;;;1.27;;
18196;SDS011;9224;52.422;13.024;2022-07-06T09:32:33;6.97;;;1.13;;
18196;SDS011;9224;52.422;13.024;2022-07-06T09:35:05;3.17;;;1.63;;
18196;SDS011;9224;52.422;13.024;2022-07-06T09:37:31;1.07;;;0.90;;
18196;SDS011;9224;52.422;13.024;2022-07-06T09:39:58;1.97;;;1.40;;
18196;SDS011;9224;52.422;13.024;2022-07-06T09:42:25;2.30;;;1.00;;
18196;SDS011;9224;52.422;13.024;2022-07-06T09:44:52;2.00;;;0.90;;
18196;SDS011;9224;52.422;13.024;2022-07-06T09:47:19;2.13;;;0.57;;
18196;SDS011;9224;52.422;13.024;2022-07-06T09:49:47;1.73;;;0.80;;
18196;SDS011;9224;52.422;13.024;2022-07-06T09:52:14;3.37;;;0.60;;
18196;SDS011;9224;52.422;13.024;2022-07-06T09:54:40;1.63;;;0.60;;
18196;SDS011;9224;52.422;13.024;2022-07-06T09:57:07;2.60;;;0.73;;
18196;SDS011;9224;52.422;13.024;2022-07-06T09:59:34;1.50;;;0.70;;
18196;SDS011;9224;52.422;13.024;2022-07-06T10:02:01;2.00;;;1.00;;
18196;SDS011;9224;52.422;13.024;2022-07-06T10:04:29;1.93;;;0.90;;
18196;SDS011;9224;52.422;13.024;2022-07-06T10:06:58;2.63;;;1.17;;
18196;SDS011;9224;52.422;13.024;2022-07-06T10:09:25;4.67;;;1.17;;
18196;SDS011;9224;52.422;13.024;2022-07-06T10:11:53;2.93;;;0.97;;
18196;SDS011;9224;52.422;13.024;2022-07-06T10:14:21;2.40;;;1.50;;
18196;SDS011;9224;52.422;13.024;2022-07-06T10:16:48;1.17;;;0.80;;
18196;SDS011;9224;52.422;13.024;2022-07-06T10:19:16;0.73;;;0.70;;
18196;SDS011;9224;52.422;13.024;2022-07-06T10:21:43;2.27;;;1.00;;
18196;SDS011;9224;52.422;13.024;2022-07-06T10:24:11;1.77;;;0.93;;
18196;SDS011;9224;52.422;13.024;2022-07-06T10:26:38;0.70;;;0.70;;
18196;SDS011;9224;52.422;13.024;2022-07-06T10:29:06;2.27;;;1.00;;
18196;SDS011;9224;52.422;13.024;2022-07-06T10:31:34;2.90;;;0.80;;
18196;SDS011;9224;52.422;13.024;2022-07-06T10:34:03;1.03;;;0.73;;
18196;SDS011;9224;52.422;13.024;2022-07-06T10:36:36;1.80;;;0.77;;
18196;SDS011;9224;52.422;13.024;2022-07-06T10:39:03;6.27;;;1.00;;
18196;SDS011;9224;52.422;13.024;2022-07-06T10:41:51;2.17;;;0.93;;
18196;SDS011;9224;52.422;13.024;2022-07-06T10:44:18;4.83;;;1.03;;
18196;SDS011;9224;52.422;13.024;2022-07-06T10:46:49;1.37;;;0.60;;
18196;SDS011;9224;52.422;13.024;2022-07-06T10:49:17;6.17;;;1.50;;
18196;SDS011;9224;52.422;13.024;2022-07-06T10:51:43;1.83;;;1.07;;
18196;SDS011;9224;52.422;13.024;2022-07-06T10:54:10;4.93;;;1.33;;
18196;SDS011;9224;52.422;13.024;2022-07-06T10:56:37;5.33;;;1.50;;
18196;SDS011;9224;52.422;13.024;2022-07-06T10:59:09;3.23;;;1.20;;
18196;SDS011;9224;52.422;13.024;2022-07-06T11:01:37;3.07;;;1.17;;
18196;SDS011;9224;52.422;13.024;2022-07-06T11:04:07;5.13;;;1.00;;
18196;SDS011;9224;52.422;13.024;2022-07-06T11:06:34;2.67;;;0.70;;
18196;SDS011;9224;52.422;13.024;2022-07-06T11:09:03;1.43;;;1.10;;
18196;SDS011;9224;52.422;13.024;2022-07-06T11:11:40;1.73;;;0.90;;
18196;SDS011;9224;52.422;13.024;2022-07-06T11:14:10;2.43;;;0.97;;
18196;SDS011;9224;52.422;13.024;2022-07-06T11:16:39;2.40;;;0.73;;
18196;SDS011;9224;52.422;13.024;2022-07-06T11:19:08;3.00;;;1.00;;
18196;SDS011;9224;52.422;13.024;2022-07-06T11:21:37;1.43;;;0.87;;
18196;SDS011;9224;52.422;13.024;2022-07-06T11:24:10;3.63;;;1.27;;
18196;SDS011;9224;52.422;13.024;2022-07-06T11:26:37;4.80;;;1.17;;
18196;SDS011;9224;52.422;13.024;2022-07-06T11:29:05;2.70;;;1.10;;
18196;SDS011;9224;52.422;13.024;2022-07-06T11:31:35;2.20;;;0.87;;
18196;SDS011;9224;52.422;13.024;2022-07-06T11:34:03;3.13;;;1.17;;
18196;SDS011;9224;52.422;13.024;2022-07-06T11:36:30;3.40;;;1.03;;
18196;SDS011;9224;52.422;13.024;2022-07-06T11:38:56;2.00;;;1.17;;
18196;SDS011;9224;52.422;13.024;2022-07-06T11:41:23;2.00;;;0.97;;
18196;SDS011;9224;52.422;13.024;2022-07-06T11:43:49;1.77;;;0.70;;
18196;SDS011;9224;52.422;13.024;2022-07-06T11:46:18;2.07;;;0.70;;
18196;SDS011;9224;52.422;13.024;2022-07-06T11:48:47;1.00;;;0.60;;
18196;SDS011;9224;52.422;13.024;2022-07-06T11:51:14;1.90;;;0.50;;
18196;SDS011;9224;52.422;13.024;2022-07-06T11:53:44;1.70;;;0.80;;
18196;SDS011;9224;52.422;13.024;2022-07-06T11:56:12;1.73;;;1.33;;
18196;SDS011;9224;52.422;13.024;2022-07-06T11:58:39;2.23;;;0.63;;
18196;SDS011;9224;52.422;13.024;2022-07-06T12:01:08;2.87;;;0.93;;
18196;SDS011;9224;52.422;13.024;2022-07-06T12:03:36;1.80;;;0.90;;
18196;SDS011;9224;52.422;13.024;2022-07-06T12:06:05;2.50;;;0.90;;
18196;SDS011;9224;52.422;13.024;2022-07-06T12:08:40;2.87;;;1.40;;
18196;SDS011;9224;52.422;13.024;2022-07-06T12:11:07;2.53;;;1.17;;
18196;SDS011;9224;52.422;13.024;2022-07-06T12:13:35;3.23;;;1.40;;
18196;SDS011;9224;52.422;13.024;2022-07-06T12:16:08;2.90;;;1.93;;
18196;SDS011;9224;52.422;13.024;2022-07-06T12:18:36;3.43;;;2.43;;
18196;SDS011;9224;52.422;13.024;2022-07-06T12:21:04;2.20;;;2.00;;
18196;SDS011;9224;52.422;13.024;2022-07-06T12:23:43;4.30;;;2.40;;
18196;SDS011;9224;52.422;13.024;2022-07-06T12:26:11;3.27;;;2.67;;
18196;SDS011;9224;52.422;13.024;2022-07-06T12:28:38;3.43;;;3.10;;
18196;SDS011;9224;52.422;13.024;2022-07-06T12:31:05;6.57;;;3.70;;
18196;SDS011;9224;52.422;13.024;2022-07-06T12:33:32;3.80;;;3.50;;
18196;SDS011;9224;52.422;13.024;2022-07-06T12:36:13;3.73;;;3.37;;
18196;SDS011;9224;52.422;13.024;2022-07-06T12:38:44;6.83;;;3.80;;
18196;SDS011;9224;52.422;13.024;2022-07-06T12:41:23;3.20;;;2.90;;
18196;SDS011;9224;52.422;13.024;2022-07-06T12:43:59;3.67;;;3.37;;
18196;SDS011;9224;52.422;13.024;2022-07-06T12:46:27;5.23;;;4.63;;
18196;SDS011;9224;52.422;13.024;2022-07-06T12:48:55;5.10;;;4.47;;
18196;SDS011;9224;52.422;13.024;2022-07-06T12:51:24;4.87;;;4.47;;
18196;SDS011;9224;52.422;13.024;2022-07-06T12:53:50;4.40;;;3.93;;
18196;SDS011;9224;52.422;13.024;2022-07-06T12:56:17;4.43;;;2.87;;
18196;SDS011;9224;52.422;13.024;2022-07-06T12:58:55;4.87;;;3.03;;
18196;SDS011;9224;52.422;13.024;2022-07-06T13:01:22;4.80;;;3.20;;
18196;SDS011;9224;52.422;13.024;2022-07-06T13:03:51;3.40;;;3.10;;
18196;SDS011;9224;52.422;13.024;2022-07-06T13:06:27;2.60;;;1.33;;
18196;SDS011;9224;52.422;13.024;2022-07-06T13:08:55;1.40;;;0.80;;
18196;SDS011;9224;52.422;13.024;2022-07-06T13:11:22;1.73;;;0.80;;
18196;SDS011;9224;52.422;13.024;2022-07-06T13:13:48;3.80;;;0.87;;
18196;SDS011;9224;52.422;13.024;2022-07-06T13:16:15;2.63;;;1.13;;
18196;SDS011;9224;52.422;13.024;2022-07-06T13:18:41;3.13;;;1.27;;
18196;SDS011;9224;52.422;13.024;2022-07-06T13:21:08;0.50;;;0.50;;
18196;SDS011;9224;52.422;13.024;2022-07-06T13:23:36;1.63;;;1.03;;
18196;SDS011;9224;52.422;13.024;2022-07-06T13:26:02;2.80;;;1.27;;
18196;SDS011;9224;52.422;13.024;2022-07-06T13:28:29;1.60;;;0.80;;
18196;SDS011;9224;52.422;13.024;2022-07-06T13:30:55;2.10;;;1.27;;
18196;SDS011;9224;52.422;13.024;2022-07-06T13:33:22;4.20;;;1.27;;
18196;SDS011;9224;52.422;13.024;2022-07-06T13:35:48;4.07;;;1.67;;
18196;SDS011;9224;52.422;13.024;2022-07-06T13:38:15;4.20;;;1.90;;
18196;SDS011;9224;52.422;13.024;2022-07-06T13:40:42;2.80;;;1.70;;
18196;SDS011;9224;52.422;13.024;2022-07-06T13:43:09;4.43;;;2.00;;
18196;SDS011;9224;52.422;13.024;2022-07-06T13:45:35;5.53;;;2.27;;
18196;SDS011;9224;52.422;13.024;2022-07-06T13:48:02;2.90;;;2.10;;
18196;SDS011;9224;52.422;13.024;2022-07-06T13:50:29;2.53;;;1.60;;
18196;SDS011;9224;52.422;13.024;2022-07-06T13:52:57;2.57;;;1.50;;
18196;SDS011;9224;52.422;13.024;2022-07-06T13:55:23;2.03;;;1.10;;
18196;SDS011;9224;52.422;13.024;2022-07-06T13:57:52;2.47;;;1.07;;
18196;SDS011;9224;52.422;13.024;2022-07-06T14:00:19;1.43;;;0.73;;
18196;SDS011;9224;52.422;13.024;2022-07-06T14:02:45;2.23;;;1.17;;
18196;SDS011;9224;52.422;13.024;2022-07-06T14:05:12;1.87;;;0.60;;
18196;SDS011;9224;52.422;13.024;2022-07-06T14:07:39;3.40;;;1.10;;
18196;SDS011;9224;52.422;13.024;2022-07-06T14:10:05;0.97;;;0.67;;
18196;SDS011;9224;52.422;13.024;2022-07-06T14:12:32;1.73;;;1.10;;
18196;SDS011;9224;52.422;13.024;2022-07-06T14:15:00;1.67;;;0.93;;
18196;SDS011;9224;52.422;13.024;2022-07-06T14:17:27;2.20;;;1.00;;
18196;SDS011;9224;52.422;13.024;2022-07-06T14:19:53;2.83;;;1.27;;
18196;SDS011;9224;52.422;13.024;2022-07-06T14:22:20;1.70;;;1.30;;
18196;SDS011;9224;52.422;13.024;2022-07-06T14:24:46;1.70;;;1.20;;
18196;SDS011;9224;52.422;13.024;2022-07-06T14:27:12;1.90;;;1.63;;
18196;SDS011;9224;52.422;13.024;2022-07-06T14:29:39;2.20;;;1.70;;
18196;SDS011;9224;52.422;13.024;2022-07-06T14:32:07;1.97;;;1.40;;
18196;SDS011;9224;52.422;13.024;2022-07-06T14:34:33;2.23;;;1.50;;
18196;SDS011;9224;52.422;13.024;2022-07-06T14:37:00;3.23;;;1.93;;
18196;SDS011;9224;52.422;13.024;2022-07-06T14:39:26;3.97;;;2.20;;
18196;SDS011;9224;52.422;13.024;2022-07-06T14:41:53;5.53;;;2.07;;
18196;SDS011;9224;52.422;13.024;2022-07-06T14:44:19;2.63;;;1.90;;
18196;SDS011;9224;52.422;13.024;2022-07-06T14:46:46;2.90;;;1.80;;
18196;SDS011;9224;52.422;13.024;2022-07-06T14:49:14;4.20;;;2.20;;
18196;SDS011;9224;52.422;13.024;2022-07-06T14:51:40;2.03;;;1.83;;
18196;SDS011;9224;52.422;13.024;2022-07-06T14:54:07;2.27;;;2.00;;